createdAt,value
2022-07-29T00:02:05.111Z,100.00
2022-07-29T00:04:39.721Z,100.00
2022-07-29T00:07:15.199Z,100.00
2022-07-29T00:09:51.753Z,100.00
2022-07-29T00:12:29.770Z,100.00
2022-07-29T00:15:06.077Z,100.00
2022-07-29T00:17:40.071Z,100.00
2022-07-29T00:20:10.596Z,100.00
2022-07-29T00:22:45.868Z,100.00
2022-07-29T00:25:24.730Z,100.00
2022-07-29T00:27:55.508Z,100.00
2022-07-29T00:30:32.852Z,100.00
2022-07-29T00:33:09.087Z,100.00
2022-07-29T00:35:54.328Z,100.00
2022-07-29T00:38:29.088Z,100.00
2022-07-29T00:40:57.783Z,100.00
2022-07-29T00:43:27.220Z,100.00
2022-07-29T00:45:57.346Z,100.00
2022-07-29T00:48:37.752Z,100.00
2022-07-29T00:51:10.503Z,100.00
2022-07-29T00:53:44.143Z,100.00
2022-07-29T00:56:15.007Z,100.00
2022-07-29T00:58:44.137Z,100.00
2022-07-29T01:04:07.132Z,100.00
2022-07-29T01:06:41.299Z,100.00
2022-07-29T01:09:15.982Z,100.00
2022-07-29T01:12:11.755Z,100.00
2022-07-29T01:14:48.268Z,100.00
2022-07-29T01:17:52.402Z,100.00
2022-07-29T01:21:03.902Z,100.00
2022-07-29T01:23:53.484Z,100.00
2022-07-29T01:26:45.752Z,100.00
2022-07-29T01:29:40.388Z,100.00
2022-07-29T01:32:28.275Z,100.00
2022-07-29T01:35:39.209Z,100.00
2022-07-29T01:38:28.293Z,100.00
2022-07-29T01:41:13.297Z,100.00
2022-07-29T01:44:16.532Z,100.00
2022-07-29T01:47:06.700Z,100.00
2022-07-29T01:49:46.052Z,100.00
2022-07-29T01:52:29.988Z,100.00
2022-07-29T01:55:08.952Z,100.00
2022-07-29T01:57:50.783Z,100.00
2022-07-29T02:00:26.891Z,100.00
2022-07-29T02:03:01.628Z,100.00
2022-07-29T02:05:41.989Z,100.00
2022-07-29T02:08:13.977Z,100.00
2022-07-29T02:10:53.015Z,100.00
2022-07-29T02:13:28.034Z,100.00
2022-07-29T02:16:01.013Z,100.00
2022-07-29T02:18:36.702Z,100.00
2022-07-29T02:21:15.097Z,100.00
2022-07-29T02:23:51.587Z,100.00
2022-07-29T02:26:33.214Z,100.00
2022-07-29T02:29:10.331Z,100.00
2022-07-29T02:31:48.340Z,100.00
2022-07-29T02:34:29.764Z,100.00
2022-07-29T02:37:09.565Z,100.00
2022-07-29T02:39:45.810Z,100.00
2022-07-29T02:42:18.500Z,100.00
2022-07-29T02:44:52.655Z,100.00
2022-07-29T02:47:41.444Z,100.00
2022-07-29T02:50:43.667Z,100.00
2022-07-29T02:53:19.059Z,100.00
2022-07-29T02:56:01.583Z,100.00
2022-07-29T02:58:49.844Z,100.00
2022-07-29T03:01:41.496Z,100.00
2022-07-29T03:04:29.111Z,100.00
2022-07-29T03:07:08.798Z,100.00
2022-07-29T03:09:41.276Z,100.00
2022-07-29T03:12:12.695Z,100.00
2022-07-29T03:14:51.983Z,100.00
2022-07-29T03:17:23.787Z,100.00
2022-07-29T03:19:59.290Z,100.00
2022-07-29T03:22:29.586Z,100.00
2022-07-29T03:25:13.231Z,100.00
2022-07-29T03:27:41.597Z,100.00
2022-07-29T03:30:21.546Z,100.00
2022-07-29T03:32:53.332Z,100.00
2022-07-29T03:35:33.949Z,100.00
2022-07-29T03:38:04.615Z,100.00
2022-07-29T03:41:23.697Z,100.00
2022-07-29T03:43:54.494Z,100.00
2022-07-29T03:46:34.565Z,100.00
2022-07-29T03:49:09.284Z,100.00
2022-07-29T03:51:51.712Z,100.00
2022-07-29T03:54:22.194Z,100.00
2022-07-29T03:56:57.741Z,100.00
2022-07-29T03:59:34.143Z,100.00
2022-07-29T04:02:11.736Z,100.00
2022-07-29T04:04:43.076Z,100.00
2022-07-29T04:07:39.342Z,100.00
2022-07-29T04:10:13.063Z,100.00
2022-07-29T04:12:43.881Z,100.00
2022-07-29T04:15:15.461Z,100.00
2022-07-29T04:17:46.869Z,100.00
2022-07-29T04:20:22.424Z,100.00
2022-07-29T04:23:06.722Z,100.00
2022-07-29T04:25:47.678Z,100.00
2022-07-29T04:28:19.314Z,100.00
2022-07-29T04:30:50.088Z,100.00
2022-07-29T04:33:24.969Z,100.00
2022-07-29T04:35:55.740Z,100.00
2022-07-29T04:38:32.198Z,100.00
2022-07-29T04:41:11.150Z,100.00
2022-07-29T04:43:56.071Z,100.00
2022-07-29T04:46:42.014Z,100.00
2022-07-29T04:49:15.754Z,100.00
2022-07-29T04:51:51.710Z,100.00
2022-07-29T04:54:30.632Z,100.00
2022-07-29T04:57:10.728Z,100.00
2022-07-29T04:59:45.557Z,100.00
2022-07-29T05:02:20.532Z,100.00
2022-07-29T05:04:51.082Z,100.00
2022-07-29T05:07:22.530Z,100.00
2022-07-29T05:09:54.828Z,100.00
2022-07-29T05:12:29.289Z,100.00
2022-07-29T05:15:01.799Z,100.00
2022-07-29T05:17:33.248Z,100.00
2022-07-29T05:20:02.857Z,100.00
2022-07-29T05:22:47.905Z,100.00
2022-07-29T05:25:43.091Z,100.00
2022-07-29T05:28:18.203Z,100.00
2022-07-29T05:30:50.723Z,100.00
2022-07-29T05:33:34.969Z,100.00
2022-07-29T05:36:23.883Z,100.00
2022-07-29T05:39:01.230Z,100.00
2022-07-29T05:41:42.282Z,100.00
2022-07-29T05:44:27.426Z,100.00
2022-07-29T05:47:07.746Z,100.00
2022-07-29T05:49:44.414Z,100.00
2022-07-29T05:52:16.179Z,100.00
2022-07-29T05:54:52.913Z,100.00
2022-07-29T05:57:36.039Z,100.00
2022-07-29T06:00:12.941Z,100.00
2022-07-29T06:02:44.160Z,100.00
2022-07-29T06:05:15.606Z,100.00
2022-07-29T06:07:50.892Z,100.00
2022-07-29T06:10:26.931Z,100.00
2022-07-29T06:12:59.567Z,100.00
2022-07-29T06:15:33.303Z,100.00
2022-07-29T06:18:15.129Z,100.00
2022-07-29T06:20:53.450Z,100.00
2022-07-29T06:23:26.343Z,100.00
2022-07-29T06:25:54.374Z,100.00
2022-07-29T06:28:35.848Z,100.00
2022-07-29T06:31:16.314Z,100.00
2022-07-29T06:33:48.199Z,100.00
2022-07-29T06:36:25.674Z,100.00
2022-07-29T06:38:59.885Z,100.00
2022-07-29T06:41:45.278Z,100.00
2022-07-29T06:44:19.193Z,100.00
2022-07-29T06:47:03.737Z,100.00
2022-07-29T06:49:34.220Z,100.00
2022-07-29T06:52:03.714Z,100.00
2022-07-29T06:54:52.148Z,100.00
2022-07-29T06:57:36.054Z,100.00
2022-07-29T07:00:06.572Z,100.00
2022-07-29T07:02:38.598Z,100.00
2022-07-29T07:05:16.980Z,100.00
2022-07-29T07:07:47.806Z,100.00
2022-07-29T07:10:24.189Z,100.00
2022-07-29T07:12:54.979Z,100.00
2022-07-29T07:15:39.385Z,100.00
2022-07-29T07:18:12.043Z,100.00
2022-07-29T07:20:46.406Z,100.00
2022-07-29T07:23:23.943Z,100.00
2022-07-29T07:25:59.617Z,100.00
2022-07-29T07:28:43.222Z,100.00
2022-07-29T07:31:16.605Z,100.00
2022-07-29T07:33:45.238Z,100.00
2022-07-29T07:36:24.022Z,100.00
2022-07-29T07:38:59.950Z,100.00
2022-07-29T07:41:32.578Z,100.00
2022-07-29T07:44:15.870Z,100.00
2022-07-29T07:47:03.737Z,100.00
2022-07-29T07:49:53.564Z,100.00
2022-07-29T07:52:35.093Z,100.00
2022-07-29T07:55:05.914Z,100.00
2022-07-29T07:57:37.670Z,100.00
2022-07-29T08:00:09.826Z,100.00
2022-07-29T08:03:00.793Z,100.00
2022-07-29T08:05:34.050Z,100.00
2022-07-29T08:08:06.159Z,100.00
2022-07-29T08:10:55.374Z,100.00
2022-07-29T08:13:41.349Z,100.00
2022-07-29T08:16:17.262Z,100.00
2022-07-29T08:18:51.838Z,100.00
2022-07-29T08:21:23.876Z,100.00
2022-07-29T08:24:18.282Z,100.00
2022-07-29T08:26:51.002Z,100.00
2022-07-29T08:29:21.327Z,100.00
2022-07-29T08:31:54.965Z,100.00
2022-07-29T08:34:28.108Z,100.00
2022-07-29T08:37:06.817Z,100.00
2022-07-29T08:39:40.671Z,100.00
2022-07-29T08:42:13.720Z,100.00
2022-07-29T08:44:49.051Z,100.00
2022-07-29T08:47:25.376Z,100.00
2022-07-29T08:49:57.495Z,100.00
2022-07-29T08:52:35.633Z,100.00
2022-07-29T08:55:11.046Z,100.00
2022-07-29T08:57:54.407Z,100.00
2022-07-29T09:00:29.612Z,100.00
2022-07-29T09:03:04.544Z,100.00
2022-07-29T09:05:47.972Z,100.00
2022-07-29T09:08:18.665Z,100.00
2022-07-29T09:10:50.454Z,100.00
2022-07-29T09:13:21.148Z,100.00
2022-07-29T09:15:53.704Z,100.00
2022-07-29T09:18:52.708Z,100.00
2022-07-29T09:21:43.757Z,100.00
2022-07-29T09:24:25.485Z,100.00
2022-07-29T09:27:10.957Z,100.00
2022-07-29T09:29:42.057Z,100.00
2022-07-29T09:32:19.239Z,100.00
2022-07-29T09:34:59.484Z,100.00
2022-07-29T09:37:33.562Z,100.00
2022-07-29T09:40:07.859Z,84.62
2022-07-29T09:42:53.017Z,80.22
2022-07-29T09:45:41.547Z,78.61
2022-07-29T09:48:30.197Z,100.00
2022-07-29T09:51:18.312Z,76.11
2022-07-29T09:53:53.065Z,75.92
2022-07-29T09:59:34.930Z,73.47
2022-07-29T10:02:21.998Z,78.62
2022-07-29T10:04:59.410Z,72.17
2022-07-29T10:08:06.658Z,68.93
2022-07-29T10:10:38.944Z,79.99
2022-07-29T10:13:20.214Z,87.63
2022-07-29T10:15:51.867Z,76.47
2022-07-29T10:18:33.421Z,64.97
2022-07-29T10:21:35.046Z,74.64
2022-07-29T10:24:19.914Z,69.19
2022-07-29T10:26:59.028Z,66.87
2022-07-29T10:29:33.066Z,69.18
2022-07-29T10:32:57.159Z,62.22
2022-07-29T10:36:11.485Z,69.32
2022-07-29T10:39:15.572Z,59.41
2022-07-29T10:42:16.903Z,59.29
2022-07-29T10:44:49.242Z,55.50
2022-07-29T10:47:36.116Z,58.83
2022-07-29T10:50:21.734Z,56.17
2022-07-29T10:53:00.989Z,55.03
2022-07-29T10:55:55.425Z,57.15
2022-07-29T10:58:35.935Z,58.08
2022-07-29T11:01:39.217Z,54.58
2022-07-29T11:04:10.248Z,52.54
2022-07-29T11:07:45.648Z,48.70
2022-07-29T11:10:20.501Z,51.16
2022-07-29T11:13:08.547Z,53.13
2022-07-29T11:16:01.212Z,49.90
2022-07-29T11:18:34.910Z,49.77
2022-07-29T11:21:05.845Z,48.89
2022-07-29T11:23:42.796Z,45.96
2022-07-29T11:26:31.497Z,46.83
2022-07-29T11:29:24.178Z,48.25
2022-07-29T11:32:00.162Z,47.92
2022-07-29T11:34:45.390Z,51.72
2022-07-29T11:37:17.712Z,46.44
2022-07-29T11:40:14.217Z,46.75
2022-07-29T11:42:53.881Z,47.72
2022-07-29T11:45:43.004Z,48.83
2022-07-29T11:48:32.143Z,44.31
2022-07-29T11:51:09.490Z,43.66
2022-07-29T11:53:44.182Z,44.74
2022-07-29T11:56:22.223Z,44.12
2022-07-29T11:59:15.091Z,43.94
2022-07-29T12:02:36.458Z,47.74
2022-07-29T12:05:11.015Z,43.79
2022-07-29T12:07:46.032Z,45.44
2022-07-29T12:10:30.710Z,44.40
2022-07-29T12:13:05.385Z,44.97
2022-07-29T12:15:45.698Z,45.42
2022-07-29T12:18:25.887Z,45.45
2022-07-29T12:21:09.746Z,45.20
2022-07-29T12:23:43.108Z,45.45
2022-07-29T12:26:25.380Z,44.75
2022-07-29T12:29:02.480Z,47.54
2022-07-29T12:31:41.887Z,51.34
2022-07-29T12:36:57.531Z,44.39
2022-07-29T12:39:33.410Z,44.07
2022-07-29T12:42:14.917Z,44.92
2022-07-29T12:44:54.955Z,43.42
2022-07-29T12:47:28.082Z,42.09
2022-07-29T12:50:24.512Z,42.17
2022-07-29T12:53:19.858Z,40.15
2022-07-29T12:56:07.955Z,42.40
2022-07-29T12:58:51.334Z,43.68
2022-07-29T13:01:37.554Z,41.02
2022-07-29T13:04:15.103Z,40.06
2022-07-29T13:06:53.554Z,40.86
2022-07-29T13:09:31.368Z,41.21
2022-07-29T13:12:20.140Z,42.53
2022-07-29T13:14:58.765Z,40.16
2022-07-29T13:17:34.849Z,40.67
2022-07-29T13:20:17.300Z,41.63
2022-07-29T13:22:59.465Z,39.31
2022-07-29T13:25:38.633Z,39.72
2022-07-29T13:28:10.906Z,40.04
2022-07-29T13:30:45.753Z,40.49
2022-07-29T13:33:23.457Z,40.77
2022-07-29T13:35:57.593Z,38.18
2022-07-29T13:38:31.323Z,37.89
2022-07-29T13:41:03.759Z,39.39
2022-07-29T13:43:39.542Z,38.54
2022-07-29T13:46:13.388Z,38.84
2022-07-29T13:48:47.771Z,40.64
2022-07-29T13:51:20.162Z,40.75
2022-07-29T13:53:59.383Z,41.59
2022-07-29T13:56:30.061Z,42.41
2022-07-29T13:59:12.974Z,42.92
2022-07-29T14:01:45.759Z,42.52
2022-07-29T14:04:21.078Z,41.30
2022-07-29T14:06:51.918Z,41.17
2022-07-29T14:09:25.775Z,40.30
2022-07-29T14:11:55.736Z,39.53
2022-07-29T14:14:31.500Z,37.43
2022-07-29T14:17:12.367Z,36.92
2022-07-29T14:19:48.126Z,34.93
2022-07-29T14:22:30.132Z,31.31
2022-07-29T14:25:14.430Z,31.48
2022-07-29T14:27:50.296Z,31.04
2022-07-29T14:30:21.096Z,33.23
2022-07-29T14:33:00.804Z,37.27
2022-07-29T14:35:34.713Z,38.70
2022-07-29T14:38:11.952Z,37.66
2022-07-29T14:40:50.936Z,35.03
2022-07-29T14:43:25.192Z,34.27
2022-07-29T14:46:01.976Z,36.94
2022-07-29T14:48:38.914Z,37.72
2022-07-29T14:51:22.010Z,39.07
2022-07-29T14:53:52.690Z,39.26
2022-07-29T14:56:37.510Z,41.44
2022-07-29T14:59:12.159Z,44.34
2022-07-29T15:01:46.537Z,43.23
2022-07-29T15:04:17.923Z,43.66
2022-07-29T15:06:57.978Z,43.28
2022-07-29T15:09:36.299Z,44.54
2022-07-29T15:12:12.639Z,44.18
2022-07-29T15:14:46.560Z,42.07
2022-07-29T15:17:19.876Z,37.80
2022-07-29T15:19:54.891Z,37.06
2022-07-29T15:22:38.924Z,35.68
2022-07-29T15:25:17.246Z,34.49
2022-07-29T15:27:48.919Z,35.49
2022-07-29T15:30:34.576Z,36.01
2022-07-29T15:33:05.912Z,36.67
2022-07-29T15:35:45.021Z,35.08
2022-07-29T15:38:28.594Z,35.16
2022-07-29T15:41:07.756Z,33.31
2022-07-29T15:43:43.719Z,34.38
2022-07-29T15:46:45.698Z,34.59
2022-07-29T15:49:16.224Z,36.33
2022-07-29T15:51:47.502Z,36.88
2022-07-29T15:54:18.100Z,36.36
2022-07-29T15:56:55.763Z,36.90
2022-07-29T15:59:26.744Z,37.32
2022-07-29T16:02:08.841Z,37.85
2022-07-29T16:04:43.352Z,38.22
2022-07-29T16:07:14.453Z,39.23
2022-07-29T16:09:57.015Z,39.69
2022-07-29T16:12:29.739Z,41.24
2022-07-29T16:15:03.877Z,42.02
2022-07-29T16:17:38.378Z,43.16
2022-07-29T16:20:09.373Z,43.97
2022-07-29T16:22:46.337Z,44.63
2022-07-29T16:25:17.311Z,45.17
2022-07-29T16:27:58.109Z,46.86
2022-07-29T16:30:45.908Z,47.86
2022-07-29T16:33:25.231Z,48.77
2022-07-29T16:35:57.780Z,48.75
2022-07-29T16:41:22.279Z,49.13
2022-07-29T16:43:59.997Z,49.46
2022-07-29T16:46:31.080Z,50.59
2022-07-29T16:49:06.318Z,51.68
2022-07-29T16:51:52.152Z,53.76
2022-07-29T16:54:29.942Z,56.30
2022-07-29T16:57:05.913Z,58.12
2022-07-29T16:59:45.437Z,57.59
2022-07-29T17:02:30.682Z,58.48
2022-07-29T17:05:05.165Z,59.43
2022-07-29T17:07:47.293Z,62.07
2022-07-29T17:10:19.233Z,62.84
2022-07-29T17:12:51.912Z,64.13
2022-07-29T17:15:27.416Z,67.12
2022-07-29T17:18:13.088Z,68.25
2022-07-29T17:20:53.807Z,69.26
2022-07-29T17:23:31.151Z,74.35
2022-07-29T17:26:05.454Z,73.32
2022-07-29T17:28:37.393Z,73.60
2022-07-29T17:31:22.463Z,75.25
2022-07-29T17:33:59.986Z,77.37
2022-07-29T17:36:43.419Z,77.51
2022-07-29T17:39:17.168Z,78.56
2022-07-29T17:41:53.826Z,81.06
2022-07-29T17:44:32.496Z,80.95
2022-07-29T17:47:18.781Z,79.65
2022-07-29T17:49:57.082Z,82.43
2022-07-29T17:52:28.154Z,81.29
2022-07-29T17:55:06.744Z,80.42
2022-07-29T17:57:39.188Z,82.65
2022-07-29T18:00:13.526Z,82.51
2022-07-29T18:02:46.580Z,88.32
2022-07-29T18:05:21.590Z,87.32
2022-07-29T18:07:53.193Z,86.77
2022-07-29T18:10:28.236Z,88.60
2022-07-29T18:13:00.392Z,90.11
2022-07-29T18:15:41.865Z,93.36
2022-07-29T18:18:11.432Z,100.00
2022-07-29T18:20:47.900Z,100.00
2022-07-29T18:23:19.098Z,100.00
2022-07-29T18:26:02.737Z,100.00
2022-07-29T18:28:42.137Z,100.00
2022-07-29T18:31:16.723Z,100.00
2022-07-29T18:34:00.225Z,100.00
2022-07-29T18:36:50.448Z,100.00
2022-07-29T18:39:28.550Z,100.00
2022-07-29T18:42:17.070Z,100.00
2022-07-29T18:44:55.917Z,100.00
2022-07-29T18:47:31.999Z,100.00
2022-07-29T18:50:03.443Z,100.00
2022-07-29T18:52:36.407Z,100.00
2022-07-29T18:55:06.759Z,100.00
2022-07-29T18:57:56.251Z,100.00
2022-07-29T19:00:29.095Z,100.00
2022-07-29T19:03:03.735Z,100.00
2022-07-29T19:05:43.418Z,100.00
2022-07-29T19:08:17.144Z,100.00
2022-07-29T19:10:52.023Z,100.00
2022-07-29T19:13:20.190Z,100.00
2022-07-29T19:15:51.450Z,100.00
2022-07-29T19:18:19.634Z,100.00
2022-07-29T19:20:56.557Z,100.00
2022-07-29T19:24:01.684Z,100.00
2022-07-29T19:26:29.996Z,100.00
2022-07-29T19:29:13.921Z,100.00
2022-07-29T19:31:53.718Z,100.00
2022-07-29T19:34:25.546Z,100.00
2022-07-29T19:36:55.155Z,100.00
2022-07-29T19:39:37.695Z,100.00
2022-07-29T19:42:13.595Z,100.00
2022-07-29T19:47:24.835Z,100.00
2022-07-29T19:49:55.653Z,100.00
2022-07-29T19:52:31.289Z,100.00
2022-07-29T19:55:05.229Z,100.00
2022-07-29T19:57:45.457Z,100.00
2022-07-29T20:00:29.503Z,100.00
2022-07-29T20:03:04.466Z,100.00
2022-07-29T20:05:41.926Z,100.00
2022-07-29T20:08:37.293Z,100.00
2022-07-29T20:11:11.145Z,100.00
2022-07-29T20:13:44.972Z,100.00
2022-07-29T20:16:15.680Z,100.00
2022-07-29T20:18:43.755Z,100.00
2022-07-29T20:21:14.463Z,100.00
2022-07-29T20:23:52.118Z,100.00
2022-07-29T20:26:23.689Z,100.00
2022-07-29T20:29:09.069Z,100.00
2022-07-29T20:31:53.513Z,100.00
2022-07-29T20:34:34.531Z,100.00
2022-07-29T20:37:05.517Z,100.00
2022-07-29T20:39:43.904Z,100.00
2022-07-29T20:42:20.194Z,100.00
2022-07-29T20:44:50.981Z,100.00
2022-07-29T20:47:34.107Z,100.00
2022-07-29T20:50:13.746Z,100.00
2022-07-29T20:52:44.377Z,100.00
2022-07-29T20:55:20.013Z,100.00
2022-07-29T20:57:50.802Z,100.00
2022-07-29T21:00:28.924Z,100.00
2022-07-29T21:02:59.904Z,100.00
2022-07-29T21:05:35.163Z,100.00
2022-07-29T21:08:11.413Z,100.00
2022-07-29T21:10:45.774Z,100.00
2022-07-29T21:13:19.380Z,100.00
2022-07-29T21:15:57.002Z,100.00
2022-07-29T21:18:40.215Z,100.00
2022-07-29T21:21:15.918Z,100.00
2022-07-29T21:23:48.045Z,100.00
2022-07-29T21:26:20.287Z,100.00
2022-07-29T21:28:50.495Z,100.00
2022-07-29T21:31:22.707Z,100.00
2022-07-29T21:33:58.367Z,100.00
2022-07-29T21:36:58.514Z,100.00
2022-07-29T21:39:26.263Z,100.00
2022-07-29T21:42:04.061Z,100.00
2022-07-29T21:44:40.726Z,100.00
2022-07-29T21:47:12.106Z,100.00
2022-07-29T21:49:44.855Z,100.00
2022-07-29T21:52:20.739Z,100.00
2022-07-29T21:54:52.457Z,100.00
2022-07-29T21:57:31.968Z,100.00
2022-07-29T22:00:03.203Z,100.00
2022-07-29T22:02:47.265Z,100.00
2022-07-29T22:05:20.064Z,100.00
2022-07-29T22:07:56.670Z,100.00
2022-07-29T22:10:37.900Z,100.00
2022-07-29T22:13:10.402Z,100.00
2022-07-29T22:15:56.818Z,100.00
2022-07-29T22:18:27.602Z,100.00
2022-07-29T22:20:56.814Z,100.00
2022-07-29T22:23:32.919Z,100.00
2022-07-29T22:26:07.213Z,100.00
2022-07-29T22:28:36.707Z,100.00
2022-07-29T22:31:08.326Z,100.00
2022-07-29T22:33:39.104Z,100.00
2022-07-29T22:36:15.650Z,100.00
2022-07-29T22:38:51.858Z,100.00
2022-07-29T22:41:23.989Z,100.00
2022-07-29T22:44:04.559Z,100.00
2022-07-29T22:46:41.575Z,100.00
2022-07-29T22:49:13.552Z,100.00
2022-07-29T22:51:47.411Z,100.00
2022-07-29T22:54:19.260Z,100.00
2022-07-29T22:56:53.069Z,100.00
2022-07-29T22:59:23.662Z,100.00
2022-07-29T23:02:00.187Z,100.00
2022-07-29T23:04:36.006Z,100.00
2022-07-29T23:07:09.550Z,100.00
2022-07-29T23:09:48.372Z,100.00
2022-07-29T23:12:30.041Z,100.00
2022-07-29T23:15:06.167Z,100.00
2022-07-29T23:17:41.111Z,100.00
2022-07-29T23:20:25.126Z,100.00
2022-07-29T23:23:00.269Z,100.00
2022-07-29T23:25:37.090Z,100.00
2022-07-29T23:28:11.498Z,100.00
2022-07-29T23:30:40.908Z,100.00
2022-07-29T23:33:12.747Z,100.00
2022-07-29T23:35:45.868Z,100.00
2022-07-29T23:38:19.821Z,100.00
2022-07-29T23:40:50.473Z,100.00
2022-07-29T23:43:20.842Z,100.00
2022-07-29T23:45:51.574Z,100.00
2022-07-29T23:48:22.651Z,100.00
2022-07-29T23:51:06.906Z,100.00
2022-07-29T23:53:53.676Z,100.00
2022-07-29T23:56:33.027Z,100.00
2022-07-29T23:59:05.832Z,100.00
